createdAt,value
2017-09-26T00:00:45.185Z,78.15
2017-09-26T00:03:11.413Z,79.86
2017-09-26T00:05:37.688Z,80.53
2017-09-26T00:08:03.896Z,80.31
2017-09-26T00:10:30.126Z,78.56
2017-09-26T00:12:56.396Z,77.64
2017-09-26T00:15:22.621Z,77.43
2017-09-26T00:17:48.833Z,76.55
2017-09-26T00:20:15.093Z,75.97
2017-09-26T00:22:41.336Z,75.97
2017-09-26T00:25:07.580Z,76.38
2017-09-26T00:27:33.848Z,76.12
2017-09-26T00:30:00.076Z,76.80
2017-09-26T00:32:26.313Z,76.46
2017-09-26T00:34:52.581Z,75.86
2017-09-26T00:37:18.807Z,76.01
2017-09-26T00:39:45.012Z,76.35
2017-09-26T00:42:11.284Z,77.41
2017-09-26T00:44:37.525Z,78.63
2017-09-26T00:47:03.760Z,79.47
2017-09-26T00:49:30.035Z,79.65
2017-09-26T00:51:56.255Z,79.86
2017-09-26T00:54:22.500Z,80.07
2017-09-26T00:56:48.777Z,80.37
2017-09-26T00:59:15.006Z,80.49
2017-09-26T01:01:41.233Z,80.46
2017-09-26T01:04:07.509Z,80.10
2017-09-26T01:06:33.736Z,79.37
2017-09-26T01:08:59.974Z,79.16
2017-09-26T01:11:26.256Z,79.42
2017-09-26T01:13:52.484Z,80.36
2017-09-26T01:16:18.715Z,80.63
2017-09-26T01:18:44.995Z,79.15
2017-09-26T01:21:11.210Z,78.54
2017-09-26T01:23:37.423Z,78.72
2017-09-26T01:26:03.680Z,78.12
2017-09-26T01:28:29.889Z,77.89
2017-09-26T01:30:56.111Z,77.62
2017-09-26T01:33:22.398Z,78.24
2017-09-26T01:35:48.634Z,77.56
2017-09-26T01:38:14.857Z,77.40
2017-09-26T01:40:41.144Z,76.44
2017-09-26T01:43:07.374Z,77.00
2017-09-26T01:45:33.607Z,77.12
2017-09-26T01:47:59.879Z,77.81
2017-09-26T01:50:26.108Z,78.61
2017-09-26T01:52:52.346Z,78.47
2017-09-26T01:55:18.615Z,78.72
2017-09-26T01:57:44.834Z,78.60
2017-09-26T02:00:11.055Z,78.91
2017-09-26T02:02:37.316Z,78.38
2017-09-26T02:05:03.541Z,79.67
2017-09-26T02:07:29.782Z,80.02
2017-09-26T02:09:56.097Z,78.81
2017-09-26T02:12:22.322Z,78.24
2017-09-26T02:14:48.547Z,78.61
2017-09-26T02:17:14.814Z,79.15
2017-09-26T02:19:41.038Z,79.19
2017-09-26T02:22:07.265Z,78.86
2017-09-26T02:24:33.551Z,78.82
2017-09-26T02:26:59.773Z,78.89
2017-09-26T02:29:26.010Z,78.89
2017-09-26T02:31:52.288Z,78.62
2017-09-26T02:34:18.537Z,79.15
2017-09-26T02:36:44.759Z,79.25
2017-09-26T02:39:11.032Z,79.54
2017-09-26T02:41:37.270Z,79.29
2017-09-26T02:44:03.490Z,79.21
2017-09-26T02:46:29.790Z,78.75
2017-09-26T02:48:56.011Z,78.74
2017-09-26T02:51:22.243Z,79.11
2017-09-26T02:53:48.528Z,79.69
2017-09-26T02:56:14.763Z,79.91
2017-09-26T02:58:40.998Z,79.35
2017-09-26T03:01:07.270Z,79.69
2017-09-26T03:03:33.500Z,80.18
2017-09-26T03:05:59.739Z,79.97
2017-09-26T03:08:26.028Z,79.14
2017-09-26T03:10:52.264Z,79.73
2017-09-26T03:13:18.484Z,79.69
2017-09-26T03:15:44.759Z,79.00
2017-09-26T03:18:11.024Z,78.93
2017-09-26T03:20:37.280Z,79.62
2017-09-26T03:23:03.559Z,79.54
2017-09-26T03:25:29.898Z,79.81
2017-09-26T03:27:56.126Z,79.20
2017-09-26T03:30:22.422Z,79.39
2017-09-26T03:32:48.664Z,79.16
2017-09-26T03:35:14.889Z,78.45
2017-09-26T03:37:41.149Z,78.44
2017-09-26T03:40:07.384Z,78.85
2017-09-26T03:42:33.621Z,78.72
2017-09-26T03:44:59.886Z,78.47
2017-09-26T03:47:26.115Z,78.21
2017-09-26T03:49:52.343Z,78.42
2017-09-26T03:52:18.602Z,78.42
2017-09-26T03:54:44.830Z,77.84
2017-09-26T03:57:12.070Z,77.63
2017-09-26T03:59:38.336Z,77.57
2017-09-26T04:02:04.579Z,77.63
2017-09-26T04:04:30.824Z,77.34
2017-09-26T04:06:57.123Z,77.92
2017-09-26T04:09:23.352Z,78.04
2017-09-26T04:11:49.606Z,77.28
2017-09-26T04:14:15.886Z,77.35
2017-09-26T04:16:42.105Z,76.78
2017-09-26T04:19:08.335Z,76.59
2017-09-26T04:21:34.675Z,77.16
2017-09-26T04:24:00.904Z,78.29
2017-09-26T04:26:27.152Z,78.83
2017-09-26T04:28:53.442Z,78.95
2017-09-26T04:31:19.657Z,78.80
2017-09-26T04:33:45.895Z,79.07
2017-09-26T04:36:12.173Z,78.51
2017-09-26T04:38:38.386Z,78.23
2017-09-26T04:41:04.618Z,78.58
2017-09-26T04:43:30.911Z,79.17
2017-09-26T04:45:57.151Z,78.28
2017-09-26T04:48:23.372Z,78.63
2017-09-26T04:50:49.645Z,78.59
2017-09-26T04:53:15.861Z,78.81
2017-09-26T04:55:42.071Z,77.58
2017-09-26T04:58:08.412Z,77.37
2017-09-26T05:00:34.652Z,76.83
2017-09-26T05:03:00.895Z,76.89
2017-09-26T05:05:27.232Z,77.32
2017-09-26T05:07:53.460Z,77.03
2017-09-26T05:10:19.710Z,77.39
2017-09-26T05:12:45.990Z,77.16
2017-09-26T05:15:12.212Z,77.00
2017-09-26T05:17:38.438Z,76.31
2017-09-26T05:20:04.676Z,75.97
2017-09-26T05:22:30.911Z,76.17
2017-09-26T05:24:57.154Z,76.82
2017-09-26T05:27:23.431Z,76.15
2017-09-26T05:29:49.654Z,76.29
2017-09-26T05:32:15.864Z,76.34
2017-09-26T05:34:42.117Z,76.29
2017-09-26T05:37:08.353Z,75.93
2017-09-26T05:39:34.597Z,75.43
2017-09-26T05:42:00.872Z,75.03
2017-09-26T05:44:27.108Z,75.72
2017-09-26T05:46:53.347Z,75.97
2017-09-26T05:49:19.627Z,75.25
2017-09-26T05:51:45.846Z,74.37
2017-09-26T05:54:12.068Z,73.79
2017-09-26T05:56:38.349Z,72.90
2017-09-26T05:59:04.574Z,73.66
2017-09-26T06:01:30.827Z,73.65
2017-09-26T06:03:57.097Z,73.27
2017-09-26T06:06:23.317Z,72.98
2017-09-26T06:08:49.550Z,72.57
2017-09-26T06:11:15.827Z,73.15
2017-09-26T06:13:42.053Z,72.46
2017-09-26T06:16:08.273Z,73.29
2017-09-26T06:18:34.545Z,72.62
2017-09-26T06:21:00.828Z,72.52
2017-09-26T06:23:27.068Z,72.41
2017-09-26T06:25:53.337Z,72.30
2017-09-26T06:28:19.585Z,72.58
2017-09-26T06:30:45.814Z,72.32
2017-09-26T06:33:12.074Z,71.68
2017-09-26T06:35:38.317Z,72.12
2017-09-26T06:38:04.552Z,71.00
2017-09-26T06:40:30.824Z,71.00
2017-09-26T06:42:57.063Z,71.44
2017-09-26T06:45:23.291Z,71.14
2017-09-26T06:47:49.559Z,70.83
2017-09-26T06:50:15.796Z,70.60
2017-09-26T06:52:42.031Z,71.37
2017-09-26T06:55:08.312Z,70.66
2017-09-26T06:57:34.536Z,70.40
2017-09-26T07:00:00.762Z,70.24
2017-09-26T07:02:27.019Z,70.22
2017-09-26T07:04:53.245Z,69.52
2017-09-26T07:07:19.476Z,69.45
2017-09-26T07:09:45.744Z,69.07
2017-09-26T07:12:11.966Z,69.08
2017-09-26T07:14:38.209Z,68.62
2017-09-26T07:17:04.503Z,70.15
2017-09-26T07:19:30.733Z,68.77
2017-09-26T07:21:56.961Z,68.82
2017-09-26T07:24:23.246Z,68.74
2017-09-26T07:26:49.504Z,67.91
2017-09-26T07:29:15.727Z,67.55
2017-09-26T07:31:42.004Z,67.58
2017-09-26T07:34:08.229Z,69.09
2017-09-26T07:36:34.470Z,69.21
2017-09-26T07:39:00.749Z,68.88
2017-09-26T07:41:26.977Z,69.77
2017-09-26T07:43:53.206Z,68.89
2017-09-26T07:46:19.485Z,68.55
2017-09-26T07:48:45.715Z,67.52
2017-09-26T07:51:11.948Z,66.95
2017-09-26T07:53:38.263Z,67.20
2017-09-26T07:56:04.508Z,66.58
2017-09-26T07:58:30.755Z,66.58
2017-09-26T08:00:57.271Z,65.84
2017-09-26T08:03:23.521Z,64.56
2017-09-26T08:05:49.771Z,63.88
2017-09-26T08:08:16.039Z,64.04
2017-09-26T08:10:42.279Z,63.44
2017-09-26T08:13:08.517Z,61.35
2017-09-26T08:15:34.797Z,60.98
2017-09-26T08:18:01.085Z,60.72
2017-09-26T08:20:27.327Z,59.62
2017-09-26T08:22:53.610Z,61.03
2017-09-26T08:25:19.855Z,61.55
2017-09-26T08:27:46.150Z,60.88
2017-09-26T08:30:12.432Z,61.13
2017-09-26T08:32:38.669Z,59.47
2017-09-26T08:35:04.908Z,59.24
2017-09-26T08:37:31.190Z,59.03
2017-09-26T08:39:57.406Z,57.39
2017-09-26T08:42:23.643Z,55.76
2017-09-26T08:44:49.898Z,53.70
2017-09-26T08:47:16.131Z,53.48
2017-09-26T08:49:43.065Z,53.08
2017-09-26T08:52:09.371Z,52.58
2017-09-26T08:54:35.609Z,51.55
2017-09-26T08:57:01.844Z,51.90
2017-09-26T08:59:28.103Z,53.72
2017-09-26T09:01:54.330Z,54.85
2017-09-26T09:04:20.547Z,55.43
2017-09-26T09:06:46.834Z,55.59
2017-09-26T09:09:13.067Z,56.43
2017-09-26T09:11:39.285Z,57.26
2017-09-26T09:14:05.565Z,56.85
2017-09-26T09:16:31.815Z,57.07
2017-09-26T09:18:58.055Z,56.85
2017-09-26T09:21:24.322Z,55.84
2017-09-26T09:23:50.546Z,57.09
2017-09-26T09:26:16.774Z,58.71
2017-09-26T09:28:43.046Z,59.29
2017-09-26T09:31:09.285Z,59.08
2017-09-26T09:33:35.564Z,59.21
2017-09-26T09:36:01.863Z,59.21
2017-09-26T09:38:28.081Z,59.59
2017-09-26T09:40:54.336Z,59.75
2017-09-26T09:43:20.565Z,58.75
2017-09-26T09:45:46.814Z,57.69
2017-09-26T09:48:13.042Z,56.82
2017-09-26T09:50:39.285Z,56.71
2017-09-26T09:53:05.498Z,57.11
2017-09-26T09:55:31.714Z,57.41
2017-09-26T09:57:57.999Z,57.19
2017-09-26T10:00:24.238Z,57.06
2017-09-26T10:02:50.467Z,57.13
2017-09-26T10:05:16.744Z,57.77
2017-09-26T10:07:42.937Z,57.99
2017-09-26T10:10:09.163Z,58.07
2017-09-26T10:12:35.435Z,59.26
2017-09-26T10:15:01.675Z,59.42
2017-09-26T10:17:27.893Z,59.04
2017-09-26T10:19:54.172Z,58.39
2017-09-26T10:22:20.416Z,57.57
2017-09-26T10:24:46.670Z,56.97
2017-09-26T10:27:12.936Z,57.78
2017-09-26T10:29:39.164Z,57.24
2017-09-26T10:32:05.391Z,58.17
2017-09-26T10:34:31.669Z,56.59
2017-09-26T10:36:57.892Z,55.73
2017-09-26T10:39:24.108Z,56.97
2017-09-26T10:41:50.370Z,57.83
2017-09-26T10:44:16.598Z,56.77
2017-09-26T10:46:42.835Z,56.38
2017-09-26T10:49:09.103Z,54.88
2017-09-26T10:51:35.337Z,54.03
2017-09-26T10:54:01.571Z,53.33
2017-09-26T10:56:27.831Z,51.43
2017-09-26T10:58:54.089Z,51.80
2017-09-26T11:01:20.332Z,53.65
2017-09-26T11:03:46.617Z,54.51
2017-09-26T11:06:12.817Z,55.95
2017-09-26T11:08:39.058Z,56.37
2017-09-26T11:11:05.355Z,57.29
2017-09-26T11:13:35.680Z,55.26
2017-09-26T11:16:01.980Z,55.90
2017-09-26T11:18:28.262Z,57.33
2017-09-26T11:20:54.485Z,56.56
2017-09-26T11:23:20.720Z,57.50
2017-09-26T11:25:48.116Z,58.00
2017-09-26T11:28:14.502Z,56.43
2017-09-26T11:30:40.730Z,56.74
2017-09-26T11:33:06.993Z,55.68
2017-09-26T11:35:33.211Z,55.57
2017-09-26T11:37:59.421Z,56.55
2017-09-26T11:40:25.686Z,55.62
2017-09-26T11:42:51.900Z,56.05
2017-09-26T11:45:19.968Z,55.53
2017-09-26T11:47:46.252Z,56.27
2017-09-26T11:50:12.696Z,55.65
2017-09-26T11:52:39.177Z,55.43
2017-09-26T11:55:05.457Z,55.86
2017-09-26T11:57:31.684Z,56.50
2017-09-26T11:59:57.945Z,55.53
2017-09-26T12:02:24.226Z,56.32
2017-09-26T12:04:50.453Z,56.85
2017-09-26T12:07:16.666Z,56.31
2017-09-26T12:09:42.922Z,57.21
2017-09-26T12:12:09.128Z,56.60
2017-09-26T12:14:35.369Z,57.59
2017-09-26T12:17:01.636Z,57.92
2017-09-26T12:19:27.909Z,59.89
2017-09-26T12:21:54.328Z,60.49
2017-09-26T12:24:20.599Z,60.58
2017-09-26T12:26:46.823Z,60.77
2017-09-26T12:29:13.066Z,61.14
2017-09-26T12:31:39.330Z,62.88
2017-09-26T12:34:05.539Z,62.70
2017-09-26T12:36:31.757Z,63.27
2017-09-26T12:38:58.046Z,64.21
2017-09-26T12:41:24.271Z,64.26
2017-09-26T12:43:50.489Z,64.49
2017-09-26T12:46:16.727Z,65.24
2017-09-26T12:48:42.999Z,68.72
2017-09-26T12:51:09.237Z,73.80
2017-09-26T12:53:35.500Z,77.91
2017-09-26T12:56:01.738Z,79.48
2017-09-26T12:58:27.971Z,80.86
2017-09-26T13:00:54.244Z,83.28
2017-09-26T13:03:20.485Z,85.79
2017-09-26T13:05:46.711Z,88.40
2017-09-26T13:08:12.951Z,88.18
2017-09-26T13:10:39.177Z,88.47
2017-09-26T13:13:05.407Z,89.01
2017-09-26T13:15:31.688Z,89.79
2017-09-26T13:17:57.920Z,90.25
2017-09-26T13:20:24.158Z,90.71
2017-09-26T13:22:50.443Z,90.75
2017-09-26T13:25:16.661Z,91.34
2017-09-26T13:27:42.883Z,91.79
2017-09-26T13:30:09.153Z,92.06
2017-09-26T13:32:35.384Z,91.95
2017-09-26T13:35:01.611Z,91.57
2017-09-26T13:37:27.885Z,92.06
2017-09-26T13:39:54.159Z,92.21
2017-09-26T13:42:20.414Z,91.99
2017-09-26T13:44:46.677Z,92.21
2017-09-26T13:47:12.895Z,92.37
2017-09-26T13:49:39.111Z,92.34
2017-09-26T13:52:05.400Z,91.98
2017-09-26T13:54:31.617Z,91.88
2017-09-26T13:56:57.824Z,92.45
2017-09-26T13:59:24.096Z,92.38
2017-09-26T14:01:50.325Z,91.31
2017-09-26T14:04:16.549Z,92.11
2017-09-26T14:06:42.811Z,91.14
2017-09-26T14:09:09.033Z,91.19
2017-09-26T14:11:35.257Z,91.60
2017-09-26T14:14:01.509Z,91.71
2017-09-26T14:16:27.741Z,90.10
2017-09-26T14:18:53.971Z,89.62
2017-09-26T14:21:20.251Z,89.73
2017-09-26T14:23:46.491Z,90.51
2017-09-26T14:26:12.702Z,90.45
2017-09-26T14:28:38.957Z,90.34
2017-09-26T14:31:05.216Z,90.24
2017-09-26T14:33:31.432Z,90.33
2017-09-26T14:35:57.688Z,90.14
2017-09-26T14:38:25.054Z,89.85
2017-09-26T14:40:51.272Z,90.44
2017-09-26T14:43:17.560Z,90.29
2017-09-26T14:45:43.788Z,90.17
2017-09-26T14:48:10.014Z,90.58
2017-09-26T14:50:36.289Z,90.99
2017-09-26T14:53:02.527Z,90.96
2017-09-26T14:55:28.778Z,90.81
2017-09-26T14:57:55.041Z,90.47
2017-09-26T15:00:21.258Z,90.71
2017-09-26T15:02:47.476Z,90.22
2017-09-26T15:05:13.732Z,90.64
2017-09-26T15:07:39.961Z,90.77
2017-09-26T15:10:06.174Z,91.08
2017-09-26T15:12:32.427Z,91.33
2017-09-26T15:14:58.663Z,91.40
2017-09-26T15:17:24.905Z,91.18
2017-09-26T15:19:51.185Z,90.94
2017-09-26T15:22:17.424Z,91.66
2017-09-26T15:24:43.663Z,92.83
2017-09-26T15:27:09.935Z,92.81
2017-09-26T15:29:36.153Z,93.01
2017-09-26T15:32:02.402Z,93.19
2017-09-26T15:34:28.686Z,93.46
2017-09-26T15:36:55.078Z,93.03
2017-09-26T15:39:21.316Z,93.02
2017-09-26T15:41:47.630Z,92.05
2017-09-26T15:44:13.877Z,92.44
2017-09-26T15:46:40.153Z,92.29
2017-09-26T15:49:06.430Z,91.48
2017-09-26T15:51:32.688Z,92.22
2017-09-26T15:53:58.920Z,93.01
2017-09-26T15:56:25.180Z,91.73
2017-09-26T15:58:51.399Z,92.42
2017-09-26T16:01:17.615Z,93.74
2017-09-26T16:03:43.876Z,93.36
2017-09-26T16:06:10.089Z,92.58
2017-09-26T16:08:36.305Z,93.64
2017-09-26T16:11:02.610Z,93.49
2017-09-26T16:13:28.813Z,94.18
2017-09-26T16:15:55.030Z,93.48
2017-09-26T16:18:21.310Z,93.76
2017-09-26T16:20:47.532Z,93.96
2017-09-26T16:23:13.733Z,93.91
2017-09-26T16:25:40.000Z,94.42
2017-09-26T16:28:06.204Z,94.70
2017-09-26T16:30:32.418Z,94.45
2017-09-26T16:32:58.683Z,94.79
2017-09-26T16:35:27.965Z,94.63
2017-09-26T16:37:54.179Z,94.20
2017-09-26T16:40:20.434Z,94.06
2017-09-26T16:42:46.664Z,93.61
2017-09-26T16:45:12.891Z,92.91
2017-09-26T16:47:39.142Z,92.92
2017-09-26T16:50:05.368Z,93.15
2017-09-26T16:52:31.628Z,93.39
2017-09-26T16:54:57.979Z,93.47
2017-09-26T16:57:24.185Z,93.64
2017-09-26T16:59:50.403Z,93.43
2017-09-26T17:02:16.668Z,93.32
2017-09-26T17:04:42.886Z,93.54
2017-09-26T17:07:09.097Z,93.42
2017-09-26T17:09:35.359Z,94.01
2017-09-26T17:12:01.595Z,93.76
2017-09-26T17:14:27.832Z,93.90
2017-09-26T17:16:54.092Z,94.08
2017-09-26T17:19:20.313Z,93.98
2017-09-26T17:21:46.991Z,94.08
2017-09-26T17:24:13.262Z,94.32
2017-09-26T17:26:39.487Z,94.48
2017-09-26T17:29:05.695Z,94.90
2017-09-26T17:31:31.991Z,95.09
2017-09-26T17:33:58.270Z,95.26
2017-09-26T17:36:24.654Z,95.14
2017-09-26T17:38:50.946Z,94.88
2017-09-26T17:41:17.174Z,94.89
2017-09-26T17:43:43.384Z,94.94
2017-09-26T17:46:09.638Z,94.93
2017-09-26T17:48:35.863Z,94.84
2017-09-26T17:51:02.074Z,95.06
2017-09-26T17:53:28.341Z,93.80
2017-09-26T17:55:54.641Z,93.05
2017-09-26T17:58:20.846Z,92.63
2017-09-26T18:00:47.109Z,92.73
2017-09-26T18:03:13.327Z,93.57
2017-09-26T18:05:39.560Z,93.37
2017-09-26T18:08:05.830Z,93.32
2017-09-26T18:10:32.050Z,92.59
2017-09-26T18:12:58.280Z,93.00
2017-09-26T18:15:24.546Z,93.18
2017-09-26T18:17:50.758Z,92.68
2017-09-26T18:20:16.966Z,93.57
2017-09-26T18:22:43.231Z,93.10
2017-09-26T18:25:09.476Z,93.12
2017-09-26T18:27:35.717Z,93.42
2017-09-26T18:30:01.982Z,92.96
2017-09-26T18:32:28.214Z,92.94
2017-09-26T18:34:54.442Z,92.86
2017-09-26T18:37:20.720Z,92.92
2017-09-26T18:39:46.938Z,92.80
2017-09-26T18:42:13.161Z,92.07
2017-09-26T18:44:39.434Z,92.82
2017-09-26T18:47:05.664Z,92.55
2017-09-26T18:49:31.879Z,93.35
2017-09-26T18:51:58.152Z,93.60
2017-09-26T18:54:24.394Z,93.65
2017-09-26T18:56:50.641Z,93.29
2017-09-26T18:59:16.909Z,92.37
2017-09-26T19:01:43.185Z,92.51
2017-09-26T19:04:09.390Z,92.40
2017-09-26T19:06:35.660Z,92.18
2017-09-26T19:09:01.883Z,92.07
2017-09-26T19:11:28.093Z,92.15
2017-09-26T19:13:54.349Z,91.64
2017-09-26T19:16:20.562Z,92.32
2017-09-26T19:18:46.761Z,92.03
2017-09-26T19:21:13.022Z,91.96
2017-09-26T19:23:39.252Z,91.45
2017-09-26T19:26:05.465Z,91.21
2017-09-26T19:28:31.734Z,91.70
2017-09-26T19:30:57.964Z,91.46
2017-09-26T19:33:24.186Z,92.15
2017-09-26T19:35:50.446Z,91.63
2017-09-26T19:38:16.661Z,91.83
2017-09-26T19:40:42.892Z,93.60
2017-09-26T19:43:09.172Z,92.49
2017-09-26T19:45:35.386Z,91.98
2017-09-26T19:48:01.596Z,92.69
2017-09-26T19:50:27.863Z,92.75
2017-09-26T19:52:54.091Z,90.45
2017-09-26T19:55:20.317Z,89.49
2017-09-26T19:57:46.579Z,89.46
2017-09-26T20:00:12.794Z,89.74
2017-09-26T20:02:39.029Z,88.27
2017-09-26T20:05:05.322Z,89.76
2017-09-26T20:07:31.530Z,89.69
2017-09-26T20:09:57.770Z,89.99
2017-09-26T20:12:24.055Z,91.17
2017-09-26T20:14:50.268Z,89.91
2017-09-26T20:17:16.496Z,89.90
2017-09-26T20:19:42.746Z,90.44
2017-09-26T20:22:08.964Z,88.88
2017-09-26T20:24:35.182Z,89.07
2017-09-26T20:27:01.451Z,89.16
2017-09-26T20:32:00.051Z,88.40
2017-09-26T20:34:26.300Z,88.93
2017-09-26T20:36:52.526Z,88.93
2017-09-26T20:39:18.722Z,88.35
2017-09-26T20:41:45.029Z,88.90
2017-09-26T20:44:11.257Z,88.78
2017-09-26T20:46:37.486Z,88.51
2017-09-26T20:49:03.745Z,89.38
2017-09-26T20:51:30.005Z,88.89
2017-09-26T20:53:56.240Z,89.04
2017-09-26T20:56:22.537Z,89.29
2017-09-26T20:58:48.755Z,88.83
2017-09-26T21:01:14.973Z,89.06
2017-09-26T21:03:41.248Z,88.63
2017-09-26T21:06:07.485Z,88.95
2017-09-26T21:08:33.693Z,89.62
2017-09-26T21:10:59.949Z,90.11
2017-09-26T21:13:26.176Z,89.08
2017-09-26T21:15:52.404Z,88.33
2017-09-26T21:18:18.681Z,88.93
2017-09-26T21:20:44.904Z,89.50
2017-09-26T21:23:11.149Z,88.44
2017-09-26T21:25:37.427Z,88.89
2017-09-26T21:28:03.672Z,87.94
2017-09-26T21:30:29.900Z,88.68
2017-09-26T21:32:56.145Z,87.86
2017-09-26T21:35:22.391Z,88.66
2017-09-26T21:37:48.611Z,87.69
2017-09-26T21:40:14.891Z,86.18
2017-09-26T21:42:41.101Z,85.78
2017-09-26T21:45:07.371Z,85.82
2017-09-26T21:47:33.675Z,85.14
2017-09-26T21:49:59.900Z,85.50
2017-09-26T21:52:26.122Z,84.02
2017-09-26T21:54:52.392Z,83.83
2017-09-26T21:57:18.693Z,84.98
2017-09-26T21:59:44.914Z,83.82
2017-09-26T22:02:11.169Z,84.62
2017-09-26T22:04:37.382Z,82.54
2017-09-26T22:07:03.650Z,83.44
2017-09-26T22:09:29.907Z,81.67
2017-09-26T22:11:56.145Z,82.39
2017-09-26T22:14:22.414Z,82.09
2017-09-26T22:16:48.846Z,83.11
2017-09-26T22:19:15.089Z,81.27
2017-09-26T22:21:41.300Z,82.67
2017-09-26T22:24:07.570Z,82.25
2017-09-26T22:26:33.802Z,81.14
2017-09-26T22:29:00.041Z,81.74
2017-09-26T22:31:26.315Z,80.94
2017-09-26T22:33:52.548Z,81.30
2017-09-26T22:36:18.788Z,80.67
2017-09-26T22:38:45.056Z,80.61
2017-09-26T22:41:11.293Z,80.74
2017-09-26T22:43:37.531Z,81.54
2017-09-26T22:46:03.829Z,80.73
2017-09-26T22:48:30.056Z,79.85
2017-09-26T22:50:56.294Z,81.10
2017-09-26T22:53:22.581Z,80.52
2017-09-26T22:55:48.834Z,79.65
2017-09-26T22:58:15.060Z,79.28
2017-09-26T23:00:41.312Z,80.43
2017-09-26T23:03:07.519Z,79.64
2017-09-26T23:05:33.741Z,78.73
2017-09-26T23:08:00.040Z,77.57
2017-09-26T23:10:26.283Z,77.20
2017-09-26T23:12:52.796Z,76.92
2017-09-26T23:15:19.077Z,77.47
2017-09-26T23:17:45.306Z,76.71
2017-09-26T23:20:11.530Z,77.03
2017-09-26T23:22:37.792Z,76.83
2017-09-26T23:25:04.020Z,77.64
2017-09-26T23:27:30.262Z,82.23
2017-09-26T23:29:56.525Z,78.88
2017-09-26T23:32:22.723Z,77.41
2017-09-26T23:34:48.939Z,77.13
2017-09-26T23:37:15.210Z,77.27
2017-09-26T23:39:41.418Z,79.24
2017-09-26T23:42:07.630Z,80.75
2017-09-26T23:44:33.890Z,77.22
2017-09-26T23:47:00.138Z,74.65
2017-09-26T23:49:26.370Z,76.15
2017-09-26T23:51:52.656Z,72.82
2017-09-26T23:54:18.895Z,74.54
2017-09-26T23:56:45.160Z,76.37
2017-09-26T23:59:11.491Z,74.14
